sensor_id;sensor_type;location;lat;lon;timestamp;P1;durP1;ratioP1;P2;durP2;ratioP2
33491;SDS011;20010;51.488;7.232;2023-05-18T00:00:15;8.95;;;7.88;;
33491;SDS011;20010;51.488;7.232;2023-05-18T00:02:42;8.27;;;7.60;;
33491;SDS011;20010;51.488;7.232;2023-05-18T00:05:09;9.60;;;8.05;;
33491;SDS011;20010;51.488;7.232;2023-05-18T00:07:35;8.35;;;7.55;;
33491;SDS011;20010;51.488;7.232;2023-05-18T00:10:02;12.38;;;9.13;;
33491;SDS011;20010;51.488;7.232;2023-05-18T00:12:29;9.38;;;8.35;;
33491;SDS011;20010;51.488;7.232;2023-05-18T00:14:56;9.05;;;8.25;;
33491;SDS011;20010;51.488;7.232;2023-05-18T00:17:22;11.48;;;8.32;;
33491;SDS011;20010;51.488;7.232;2023-05-18T00:19:49;10.50;;;8.60;;
33491;SDS011;20010;51.488;7.232;2023-05-18T00:22:17;9.98;;;8.07;;
33491;SDS011;20010;51.488;7.232;2023-05-18T00:24:44;8.30;;;7.60;;
33491;SDS011;20010;51.488;7.232;2023-05-18T00:27:12;9.27;;;8.35;;
33491;SDS011;20010;51.488;7.232;2023-05-18T00:29:38;8.30;;;7.63;;
33491;SDS011;20010;51.488;7.232;2023-05-18T00:32:05;9.43;;;8.55;;
33491;SDS011;20010;51.488;7.232;2023-05-18T00:34:32;9.55;;;8.73;;
33491;SDS011;20010;51.488;7.232;2023-05-18T00:36:59;9.35;;;8.57;;
33491;SDS011;20010;51.488;7.232;2023-05-18T00:39:25;9.82;;;8.40;;
33491;SDS011;20010;51.488;7.232;2023-05-18T00:41:52;10.43;;;8.52;;
33491;SDS011;20010;51.488;7.232;2023-05-18T00:44:19;8.80;;;8.10;;
33491;SDS011;20010;51.488;7.232;2023-05-18T00:46:45;10.73;;;8.80;;
33491;SDS011;20010;51.488;7.232;2023-05-18T00:49:12;10.48;;;9.18;;
33491;SDS011;20010;51.488;7.232;2023-05-18T00:51:39;10.00;;;9.00;;
33491;SDS011;20010;51.488;7.232;2023-05-18T00:54:06;10.75;;;9.65;;
33491;SDS011;20010;51.488;7.232;2023-05-18T00:56:33;9.85;;;8.82;;
33491;SDS011;20010;51.488;7.232;2023-05-18T00:59:00;8.90;;;8.07;;
33491;SDS011;20010;51.488;7.232;2023-05-18T01:01:29;8.85;;;8.15;;
33491;SDS011;20010;51.488;7.232;2023-05-18T01:04:00;9.27;;;8.25;;
33491;SDS011;20010;51.488;7.232;2023-05-18T01:06:29;9.45;;;8.60;;
33491;SDS011;20010;51.488;7.232;2023-05-18T01:09:02;8.88;;;8.18;;
33491;SDS011;20010;51.488;7.232;2023-05-18T01:27:44;9.50;;;8.80;;
33491;SDS011;20010;51.488;7.232;2023-05-18T01:30:13;8.98;;;8.20;;
33491;SDS011;20010;51.488;7.232;2023-05-18T01:32:41;9.75;;;8.73;;
33491;SDS011;20010;51.488;7.232;2023-05-18T01:35:08;10.00;;;9.02;;
33491;SDS011;20010;51.488;7.232;2023-05-18T01:37:34;9.27;;;8.57;;
33491;SDS011;20010;51.488;7.232;2023-05-18T01:40:01;14.35;;;11.25;;
33491;SDS011;20010;51.488;7.232;2023-05-18T01:42:30;9.88;;;8.85;;
33491;SDS011;20010;51.488;7.232;2023-05-18T01:45:02;11.13;;;9.18;;
33491;SDS011;20010;51.488;7.232;2023-05-18T01:47:32;10.27;;;9.38;;
33491;SDS011;20010;51.488;7.232;2023-05-18T01:50:04;10.30;;;9.27;;
33491;SDS011;20010;51.488;7.232;2023-05-18T01:52:38;10.10;;;9.07;;
33491;SDS011;20010;51.488;7.232;2023-05-18T01:55:08;9.60;;;8.77;;
33491;SDS011;20010;51.488;7.232;2023-05-18T01:57:36;9.85;;;9.13;;
33491;SDS011;20010;51.488;7.232;2023-05-18T02:00:05;10.38;;;8.90;;
33491;SDS011;20010;51.488;7.232;2023-05-18T02:02:34;10.32;;;9.32;;
33491;SDS011;20010;51.488;7.232;2023-05-18T02:05:01;10.18;;;9.15;;
33491;SDS011;20010;51.488;7.232;2023-05-18T02:07:28;11.20;;;10.15;;
33491;SDS011;20010;51.488;7.232;2023-05-18T02:09:54;11.13;;;9.65;;
33491;SDS011;20010;51.488;7.232;2023-05-18T02:12:21;12.20;;;9.00;;
33491;SDS011;20010;51.488;7.232;2023-05-18T02:14:47;11.10;;;9.45;;
33491;SDS011;20010;51.488;7.232;2023-05-18T02:17:14;10.45;;;9.45;;
33491;SDS011;20010;51.488;7.232;2023-05-18T02:19:41;13.98;;;10.63;;
33491;SDS011;20010;51.488;7.232;2023-05-18T02:22:08;10.80;;;9.60;;
33491;SDS011;20010;51.488;7.232;2023-05-18T02:24:34;10.70;;;9.60;;
33491;SDS011;20010;51.488;7.232;2023-05-18T02:27:01;10.68;;;9.82;;
33491;SDS011;20010;51.488;7.232;2023-05-18T02:29:28;9.35;;;8.70;;
33491;SDS011;20010;51.488;7.232;2023-05-18T02:31:54;9.95;;;9.20;;
33491;SDS011;20010;51.488;7.232;2023-05-18T02:34:21;11.43;;;9.88;;
33491;SDS011;20010;51.488;7.232;2023-05-18T02:36:49;12.50;;;9.88;;
33491;SDS011;20010;51.488;7.232;2023-05-18T02:39:16;9.93;;;9.13;;
33491;SDS011;20010;51.488;7.232;2023-05-18T02:41:43;10.25;;;9.30;;
33491;SDS011;20010;51.488;7.232;2023-05-18T02:44:09;10.88;;;9.85;;
33491;SDS011;20010;51.488;7.232;2023-05-18T02:46:37;10.85;;;9.75;;
33491;SDS011;20010;51.488;7.232;2023-05-18T02:49:04;10.80;;;9.88;;
33491;SDS011;20010;51.488;7.232;2023-05-18T02:51:31;10.15;;;9.07;;
33491;SDS011;20010;51.488;7.232;2023-05-18T02:53:57;10.18;;;9.20;;
33491;SDS011;20010;51.488;7.232;2023-05-18T02:56:24;10.23;;;9.38;;
33491;SDS011;20010;51.488;7.232;2023-05-18T02:58:50;11.07;;;9.98;;
33491;SDS011;20010;51.488;7.232;2023-05-18T03:01:23;10.27;;;9.20;;
33491;SDS011;20010;51.488;7.232;2023-05-18T03:03:53;13.00;;;10.27;;
33491;SDS011;20010;51.488;7.232;2023-05-18T03:06:19;10.23;;;9.38;;
33491;SDS011;20010;51.488;7.232;2023-05-18T03:08:52;12.38;;;9.40;;
33491;SDS011;20010;51.488;7.232;2023-05-18T03:11:21;10.13;;;9.23;;
33491;SDS011;20010;51.488;7.232;2023-05-18T03:13:49;11.93;;;10.02;;
33491;SDS011;20010;51.488;7.232;2023-05-18T03:16:15;14.27;;;9.63;;
33491;SDS011;20010;51.488;7.232;2023-05-18T03:18:42;11.73;;;9.93;;
33491;SDS011;20010;51.488;7.232;2023-05-18T03:21:09;11.30;;;9.40;;
33491;SDS011;20010;51.488;7.232;2023-05-18T03:23:38;10.30;;;9.43;;
33491;SDS011;20010;51.488;7.232;2023-05-18T03:26:05;13.32;;;10.57;;
33491;SDS011;20010;51.488;7.232;2023-05-18T03:28:36;10.50;;;9.60;;
33491;SDS011;20010;51.488;7.232;2023-05-18T03:31:03;13.32;;;9.55;;
33491;SDS011;20010;51.488;7.232;2023-05-18T03:33:30;10.93;;;10.00;;
33491;SDS011;20010;51.488;7.232;2023-05-18T03:36:00;10.73;;;9.75;;
33491;SDS011;20010;51.488;7.232;2023-05-18T03:38:27;11.77;;;9.88;;
33491;SDS011;20010;51.488;7.232;2023-05-18T03:40:54;12.10;;;10.23;;
33491;SDS011;20010;51.488;7.232;2023-05-18T03:43:20;10.77;;;9.60;;
33491;SDS011;20010;51.488;7.232;2023-05-18T03:45:51;10.63;;;9.60;;
33491;SDS011;20010;51.488;7.232;2023-05-18T03:48:19;12.90;;;10.40;;
33491;SDS011;20010;51.488;7.232;2023-05-18T03:50:46;14.75;;;9.98;;
33491;SDS011;20010;51.488;7.232;2023-05-18T03:53:14;11.05;;;10.15;;
33491;SDS011;20010;51.488;7.232;2023-05-18T03:55:45;10.48;;;9.57;;
33491;SDS011;20010;51.488;7.232;2023-05-18T03:58:14;11.60;;;10.02;;
33491;SDS011;20010;51.488;7.232;2023-05-18T04:00:41;10.40;;;9.50;;
33491;SDS011;20010;51.488;7.232;2023-05-18T04:03:08;14.73;;;9.98;;
33491;SDS011;20010;51.488;7.232;2023-05-18T04:05:38;11.13;;;10.13;;
33491;SDS011;20010;51.488;7.232;2023-05-18T04:08:04;13.23;;;10.60;;
33491;SDS011;20010;51.488;7.232;2023-05-18T04:10:32;11.35;;;10.20;;
33491;SDS011;20010;51.488;7.232;2023-05-18T04:13:00;10.77;;;9.73;;
33491;SDS011;20010;51.488;7.232;2023-05-18T04:15:27;11.15;;;9.93;;
33491;SDS011;20010;51.488;7.232;2023-05-18T04:17:54;11.45;;;9.77;;
33491;SDS011;20010;51.488;7.232;2023-05-18T04:20:20;12.65;;;9.80;;
33491;SDS011;20010;51.488;7.232;2023-05-18T04:22:47;10.20;;;9.32;;
33491;SDS011;20010;51.488;7.232;2023-05-18T04:25:14;11.13;;;9.68;;
33491;SDS011;20010;51.488;7.232;2023-05-18T04:27:41;13.57;;;10.02;;
33491;SDS011;20010;51.488;7.232;2023-05-18T04:30:09;12.88;;;10.70;;
33491;SDS011;20010;51.488;7.232;2023-05-18T04:32:37;11.38;;;10.00;;
33491;SDS011;20010;51.488;7.232;2023-05-18T04:35:07;11.00;;;10.00;;
33491;SDS011;20010;51.488;7.232;2023-05-18T04:37:34;9.70;;;8.90;;
33491;SDS011;20010;51.488;7.232;2023-05-18T04:40:06;10.65;;;9.68;;
33491;SDS011;20010;51.488;7.232;2023-05-18T04:42:33;10.88;;;9.88;;
33491;SDS011;20010;51.488;7.232;2023-05-18T04:45:03;10.25;;;9.40;;
33491;SDS011;20010;51.488;7.232;2023-05-18T04:47:31;11.05;;;9.60;;
33491;SDS011;20010;51.488;7.232;2023-05-18T04:49:58;14.40;;;10.32;;
33491;SDS011;20010;51.488;7.232;2023-05-18T04:52:24;10.85;;;9.85;;
33491;SDS011;20010;51.488;7.232;2023-05-18T04:54:51;11.52;;;9.93;;
33491;SDS011;20010;51.488;7.232;2023-05-18T04:57:18;13.73;;;9.93;;
33491;SDS011;20010;51.488;7.232;2023-05-18T04:59:44;10.93;;;9.88;;
33491;SDS011;20010;51.488;7.232;2023-05-18T05:02:12;10.25;;;9.27;;
33491;SDS011;20010;51.488;7.232;2023-05-18T05:04:39;13.10;;;9.48;;
33491;SDS011;20010;51.488;7.232;2023-05-18T05:07:07;16.38;;;9.77;;
33491;SDS011;20010;51.488;7.232;2023-05-18T05:09:33;10.85;;;9.75;;
33491;SDS011;20010;51.488;7.232;2023-05-18T05:12:00;12.70;;;10.00;;
33491;SDS011;20010;51.488;7.232;2023-05-18T05:14:27;15.63;;;10.02;;
33491;SDS011;20010;51.488;7.232;2023-05-18T05:16:53;12.63;;;10.05;;
33491;SDS011;20010;51.488;7.232;2023-05-18T05:19:20;11.10;;;10.10;;
33491;SDS011;20010;51.488;7.232;2023-05-18T05:21:46;13.43;;;10.35;;
33491;SDS011;20010;51.488;7.232;2023-05-18T05:24:13;10.60;;;9.52;;
33491;SDS011;20010;51.488;7.232;2023-05-18T05:26:40;11.02;;;10.07;;
33491;SDS011;20010;51.488;7.232;2023-05-18T05:29:06;10.68;;;9.70;;
33491;SDS011;20010;51.488;7.232;2023-05-18T05:31:33;10.57;;;9.55;;
33491;SDS011;20010;51.488;7.232;2023-05-18T05:33:59;11.95;;;10.30;;
33491;SDS011;20010;51.488;7.232;2023-05-18T05:36:26;12.68;;;9.43;;
33491;SDS011;20010;51.488;7.232;2023-05-18T05:38:53;15.15;;;12.20;;
33491;SDS011;20010;51.488;7.232;2023-05-18T05:41:19;11.60;;;10.45;;
33491;SDS011;20010;51.488;7.232;2023-05-18T05:43:47;17.23;;;10.88;;
33491;SDS011;20010;51.488;7.232;2023-05-18T05:46:14;12.90;;;10.90;;
33491;SDS011;20010;51.488;7.232;2023-05-18T05:48:41;13.90;;;11.48;;
33491;SDS011;20010;51.488;7.232;2023-05-18T05:51:07;13.38;;;9.90;;
33491;SDS011;20010;51.488;7.232;2023-05-18T05:53:34;12.25;;;9.30;;
33491;SDS011;20010;51.488;7.232;2023-05-18T05:56:01;10.02;;;9.10;;
33491;SDS011;20010;51.488;7.232;2023-05-18T05:58:27;15.27;;;10.43;;
33491;SDS011;20010;51.488;7.232;2023-05-18T06:00:54;13.20;;;10.55;;
33491;SDS011;20010;51.488;7.232;2023-05-18T06:03:20;11.10;;;10.18;;
33491;SDS011;20010;51.488;7.232;2023-05-18T06:05:47;9.75;;;8.75;;
33491;SDS011;20010;51.488;7.232;2023-05-18T06:08:14;13.95;;;9.05;;
33491;SDS011;20010;51.488;7.232;2023-05-18T06:10:42;10.43;;;8.63;;
33491;SDS011;20010;51.488;7.232;2023-05-18T06:13:08;10.07;;;9.07;;
33491;SDS011;20010;51.488;7.232;2023-05-18T06:15:35;12.43;;;9.23;;
33491;SDS011;20010;51.488;7.232;2023-05-18T06:18:02;10.80;;;9.60;;
33491;SDS011;20010;51.488;7.232;2023-05-18T06:20:28;14.93;;;9.82;;
33491;SDS011;20010;51.488;7.232;2023-05-18T06:22:55;21.52;;;8.63;;
33491;SDS011;20010;51.488;7.232;2023-05-18T06:25:22;10.88;;;7.93;;
33491;SDS011;20010;51.488;7.232;2023-05-18T06:27:49;9.77;;;8.85;;
33491;SDS011;20010;51.488;7.232;2023-05-18T06:30:17;10.82;;;8.82;;
33491;SDS011;20010;51.488;7.232;2023-05-18T06:32:43;10.30;;;8.77;;
33491;SDS011;20010;51.488;7.232;2023-05-18T06:35:10;10.18;;;9.25;;
33491;SDS011;20010;51.488;7.232;2023-05-18T06:37:38;12.82;;;10.07;;
33491;SDS011;20010;51.488;7.232;2023-05-18T06:40:05;9.27;;;8.50;;
33491;SDS011;20010;51.488;7.232;2023-05-18T06:42:32;9.00;;;8.23;;
33491;SDS011;20010;51.488;7.232;2023-05-18T06:44:59;9.52;;;8.55;;
33491;SDS011;20010;51.488;7.232;2023-05-18T06:47:25;12.82;;;8.90;;
33491;SDS011;20010;51.488;7.232;2023-05-18T06:49:52;10.02;;;7.97;;
33491;SDS011;20010;51.488;7.232;2023-05-18T06:52:19;9.45;;;8.50;;
33491;SDS011;20010;51.488;7.232;2023-05-18T06:54:45;15.65;;;8.45;;
33491;SDS011;20010;51.488;7.232;2023-05-18T06:57:12;13.80;;;9.63;;
33491;SDS011;20010;51.488;7.232;2023-05-18T06:59:39;10.85;;;8.52;;
33491;SDS011;20010;51.488;7.232;2023-05-18T07:02:06;9.30;;;8.40;;
33491;SDS011;20010;51.488;7.232;2023-05-18T07:04:32;11.27;;;8.55;;
33491;SDS011;20010;51.488;7.232;2023-05-18T07:06:59;11.13;;;8.60;;
33491;SDS011;20010;51.488;7.232;2023-05-18T07:09:25;9.77;;;8.75;;
33491;SDS011;20010;51.488;7.232;2023-05-18T07:11:52;13.32;;;8.52;;
33491;SDS011;20010;51.488;7.232;2023-05-18T07:14:18;9.85;;;8.65;;
33491;SDS011;20010;51.488;7.232;2023-05-18T07:16:45;11.25;;;10.10;;
33491;SDS011;20010;51.488;7.232;2023-05-18T07:19:12;13.02;;;8.98;;
33491;SDS011;20010;51.488;7.232;2023-05-18T07:21:40;9.88;;;8.93;;
33491;SDS011;20010;51.488;7.232;2023-05-18T07:24:07;9.93;;;8.35;;
33491;SDS011;20010;51.488;7.232;2023-05-18T07:26:34;9.75;;;8.75;;
33491;SDS011;20010;51.488;7.232;2023-05-18T07:29:00;8.55;;;7.75;;
33491;SDS011;20010;51.488;7.232;2023-05-18T07:31:27;8.93;;;7.88;;
33491;SDS011;20010;51.488;7.232;2023-05-18T07:33:54;9.80;;;8.25;;
33491;SDS011;20010;51.488;7.232;2023-05-18T07:36:20;8.52;;;7.80;;
33491;SDS011;20010;51.488;7.232;2023-05-18T07:38:47;8.65;;;7.80;;
33491;SDS011;20010;51.488;7.232;2023-05-18T07:41:20;8.40;;;7.60;;
33491;SDS011;20010;51.488;7.232;2023-05-18T07:43:48;9.50;;;7.60;;
33491;SDS011;20010;51.488;7.232;2023-05-18T07:46:15;9.35;;;8.55;;
33491;SDS011;20010;51.488;7.232;2023-05-18T07:48:42;9.38;;;8.38;;
33491;SDS011;20010;51.488;7.232;2023-05-18T07:51:10;14.63;;;8.48;;
33491;SDS011;20010;51.488;7.232;2023-05-18T07:53:37;8.98;;;8.05;;
33491;SDS011;20010;51.488;7.232;2023-05-18T07:56:04;9.57;;;8.40;;
33491;SDS011;20010;51.488;7.232;2023-05-18T07:58:33;8.88;;;7.80;;
33491;SDS011;20010;51.488;7.232;2023-05-18T08:01:00;11.35;;;8.27;;
33491;SDS011;20010;51.488;7.232;2023-05-18T08:03:27;11.07;;;8.82;;
33491;SDS011;20010;51.488;7.232;2023-05-18T08:05:54;10.02;;;8.88;;
33491;SDS011;20010;51.488;7.232;2023-05-18T08:08:21;14.07;;;10.68;;
33491;SDS011;20010;51.488;7.232;2023-05-18T08:10:47;10.35;;;9.23;;
33491;SDS011;20010;51.488;7.232;2023-05-18T08:13:14;8.80;;;7.97;;
33491;SDS011;20010;51.488;7.232;2023-05-18T08:15:41;9.02;;;8.23;;
33491;SDS011;20010;51.488;7.232;2023-05-18T08:18:07;10.90;;;7.82;;
33491;SDS011;20010;51.488;7.232;2023-05-18T08:20:34;9.65;;;8.65;;
33491;SDS011;20010;51.488;7.232;2023-05-18T08:23:01;11.15;;;8.18;;
33491;SDS011;20010;51.488;7.232;2023-05-18T08:25:27;8.18;;;7.47;;
33491;SDS011;20010;51.488;7.232;2023-05-18T08:27:54;9.40;;;7.85;;
33491;SDS011;20010;51.488;7.232;2023-05-18T08:30:21;10.63;;;8.82;;
33491;SDS011;20010;51.488;7.232;2023-05-18T08:32:48;11.90;;;8.50;;
33491;SDS011;20010;51.488;7.232;2023-05-18T08:35:14;9.40;;;8.40;;
33491;SDS011;20010;51.488;7.232;2023-05-18T08:37:41;8.95;;;8.13;;
33491;SDS011;20010;51.488;7.232;2023-05-18T08:40:08;12.75;;;8.20;;
33491;SDS011;20010;51.488;7.232;2023-05-18T08:42:47;8.20;;;7.40;;
33491;SDS011;20010;51.488;7.232;2023-05-18T08:45:19;10.00;;;7.93;;
33491;SDS011;20010;51.488;7.232;2023-05-18T08:47:49;11.65;;;7.80;;
33491;SDS011;20010;51.488;7.232;2023-05-18T08:50:17;8.30;;;7.60;;
33491;SDS011;20010;51.488;7.232;2023-05-18T08:52:50;8.27;;;7.55;;
33491;SDS011;20010;51.488;7.232;2023-05-18T08:57:49;10.40;;;8.80;;
33491;SDS011;20010;51.488;7.232;2023-05-18T09:00:21;9.38;;;7.80;;
33491;SDS011;20010;51.488;7.232;2023-05-18T09:02:50;11.45;;;8.25;;
33491;SDS011;20010;51.488;7.232;2023-05-18T09:05:16;9.00;;;7.88;;
33491;SDS011;20010;51.488;7.232;2023-05-18T09:07:43;10.13;;;7.85;;
33491;SDS011;20010;51.488;7.232;2023-05-18T09:10:11;12.93;;;7.90;;
33491;SDS011;20010;51.488;7.232;2023-05-18T09:12:41;11.90;;;8.00;;
33491;SDS011;20010;51.488;7.232;2023-05-18T09:15:08;13.65;;;8.30;;
33491;SDS011;20010;51.488;7.232;2023-05-18T09:17:36;10.13;;;8.38;;
33491;SDS011;20010;51.488;7.232;2023-05-18T09:20:03;8.15;;;7.38;;
33491;SDS011;20010;51.488;7.232;2023-05-18T09:22:33;10.32;;;8.23;;
33491;SDS011;20010;51.488;7.232;2023-05-18T09:25:09;10.68;;;8.15;;
33491;SDS011;20010;51.488;7.232;2023-05-18T09:27:36;10.48;;;9.00;;
33491;SDS011;20010;51.488;7.232;2023-05-18T09:30:03;10.40;;;8.73;;
33491;SDS011;20010;51.488;7.232;2023-05-18T09:32:33;8.68;;;7.97;;
33491;SDS011;20010;51.488;7.232;2023-05-18T09:35:05;11.68;;;8.38;;
33491;SDS011;20010;51.488;7.232;2023-05-18T09:37:33;8.48;;;7.78;;
33491;SDS011;20010;51.488;7.232;2023-05-18T09:40:01;11.27;;;9.02;;
33491;SDS011;20010;51.488;7.232;2023-05-18T09:45:14;12.40;;;8.13;;
33491;SDS011;20010;51.488;7.232;2023-05-18T09:47:44;11.32;;;8.25;;
33491;SDS011;20010;51.488;7.232;2023-05-18T09:50:11;9.38;;;8.57;;
33491;SDS011;20010;51.488;7.232;2023-05-18T09:52:41;12.98;;;8.55;;
33491;SDS011;20010;51.488;7.232;2023-05-18T09:55:09;10.45;;;9.20;;
33491;SDS011;20010;51.488;7.232;2023-05-18T09:57:40;11.43;;;8.77;;
33491;SDS011;20010;51.488;7.232;2023-05-18T10:00:09;9.23;;;8.45;;
33491;SDS011;20010;51.488;7.232;2023-05-18T10:02:37;10.73;;;9.18;;
33491;SDS011;20010;51.488;7.232;2023-05-18T10:05:27;9.35;;;8.52;;
33491;SDS011;20010;51.488;7.232;2023-05-18T10:08:00;10.40;;;9.23;;
33491;SDS011;20010;51.488;7.232;2023-05-18T10:10:27;10.07;;;9.10;;
33491;SDS011;20010;51.488;7.232;2023-05-18T10:12:55;9.88;;;8.68;;
33491;SDS011;20010;51.488;7.232;2023-05-18T10:15:24;9.60;;;8.55;;
33491;SDS011;20010;51.488;7.232;2023-05-18T10:17:54;9.60;;;8.80;;
33491;SDS011;20010;51.488;7.232;2023-05-18T10:22:49;9.98;;;9.07;;
33491;SDS011;20010;51.488;7.232;2023-05-18T10:25:19;10.93;;;8.75;;
33491;SDS011;20010;51.488;7.232;2023-05-18T10:27:48;13.88;;;9.05;;
33491;SDS011;20010;51.488;7.232;2023-05-18T10:30:15;9.43;;;8.43;;
33491;SDS011;20010;51.488;7.232;2023-05-18T10:32:45;10.60;;;8.88;;
33491;SDS011;20010;51.488;7.232;2023-05-18T10:35:13;9.82;;;8.82;;
33491;SDS011;20010;51.488;7.232;2023-05-18T10:37:42;8.35;;;7.70;;
33491;SDS011;20010;51.488;7.232;2023-05-18T10:40:14;9.32;;;8.48;;
33491;SDS011;20010;51.488;7.232;2023-05-18T10:42:43;9.45;;;8.55;;
33491;SDS011;20010;51.488;7.232;2023-05-18T10:45:11;11.23;;;8.88;;
33491;SDS011;20010;51.488;7.232;2023-05-18T10:47:37;9.40;;;8.50;;
33491;SDS011;20010;51.488;7.232;2023-05-18T10:50:05;9.55;;;8.73;;
33491;SDS011;20010;51.488;7.232;2023-05-18T10:52:34;10.13;;;9.23;;
33491;SDS011;20010;51.488;7.232;2023-05-18T10:55:02;11.23;;;8.75;;
33491;SDS011;20010;51.488;7.232;2023-05-18T10:57:34;9.65;;;8.65;;
33491;SDS011;20010;51.488;7.232;2023-05-18T11:00:06;13.85;;;9.18;;
33491;SDS011;20010;51.488;7.232;2023-05-18T11:02:36;11.80;;;8.90;;
33491;SDS011;20010;51.488;7.232;2023-05-18T11:05:05;9.10;;;8.45;;
33491;SDS011;20010;51.488;7.232;2023-05-18T11:07:32;9.98;;;8.30;;
33491;SDS011;20010;51.488;7.232;2023-05-18T11:10:00;8.65;;;7.90;;
33491;SDS011;20010;51.488;7.232;2023-05-18T11:12:27;9.48;;;8.48;;
33491;SDS011;20010;51.488;7.232;2023-05-18T11:14:58;9.20;;;8.20;;
33491;SDS011;20010;51.488;7.232;2023-05-18T11:17:27;9.55;;;7.88;;
33491;SDS011;20010;51.488;7.232;2023-05-18T11:27:52;11.63;;;9.02;;
33491;SDS011;20010;51.488;7.232;2023-05-18T11:30:25;10.75;;;8.30;;
33491;SDS011;20010;51.488;7.232;2023-05-18T11:32:52;9.57;;;8.77;;
33491;SDS011;20010;51.488;7.232;2023-05-18T11:38:53;10.07;;;9.07;;
33491;SDS011;20010;51.488;7.232;2023-05-18T11:49:24;8.75;;;7.97;;
33491;SDS011;20010;51.488;7.232;2023-05-18T11:52:00;10.25;;;9.02;;
33491;SDS011;20010;51.488;7.232;2023-05-18T11:54:36;12.38;;;8.90;;
33491;SDS011;20010;51.488;7.232;2023-05-18T11:57:06;11.57;;;8.32;;
33491;SDS011;20010;51.488;7.232;2023-05-18T11:59:40;8.38;;;7.68;;
33491;SDS011;20010;51.488;7.232;2023-05-18T12:02:08;10.18;;;7.75;;
33491;SDS011;20010;51.488;7.232;2023-05-18T12:04:44;10.00;;;7.60;;
33491;SDS011;20010;51.488;7.232;2023-05-18T12:07:13;8.13;;;7.32;;
33491;SDS011;20010;51.488;7.232;2023-05-18T12:09:40;7.40;;;6.82;;
33491;SDS011;20010;51.488;7.232;2023-05-18T12:14:38;8.43;;;7.55;;
33491;SDS011;20010;51.488;7.232;2023-05-18T12:17:07;7.90;;;6.95;;
33491;SDS011;20010;51.488;7.232;2023-05-18T12:19:46;7.65;;;7.00;;
33491;SDS011;20010;51.488;7.232;2023-05-18T12:22:14;9.13;;;8.13;;
33491;SDS011;20010;51.488;7.232;2023-05-18T12:24:41;9.27;;;7.55;;
33491;SDS011;20010;51.488;7.232;2023-05-18T12:27:09;7.97;;;7.18;;
33491;SDS011;20010;51.488;7.232;2023-05-18T12:29:40;8.35;;;7.60;;
33491;SDS011;20010;51.488;7.232;2023-05-18T12:32:08;7.57;;;6.93;;
33491;SDS011;20010;51.488;7.232;2023-05-18T12:34:36;7.95;;;7.22;;
33491;SDS011;20010;51.488;7.232;2023-05-18T12:37:07;8.13;;;7.32;;
33491;SDS011;20010;51.488;7.232;2023-05-18T12:39:34;8.23;;;7.47;;
33491;SDS011;20010;51.488;7.232;2023-05-18T12:42:12;8.38;;;7.45;;
33491;SDS011;20010;51.488;7.232;2023-05-18T12:44:41;7.90;;;7.20;;
33491;SDS011;20010;51.488;7.232;2023-05-18T12:47:11;8.82;;;7.97;;
33491;SDS011;20010;51.488;7.232;2023-05-18T12:49:47;10.27;;;8.00;;
33491;SDS011;20010;51.488;7.232;2023-05-18T12:52:14;8.15;;;7.55;;
33491;SDS011;20010;51.488;7.232;2023-05-18T12:57:15;8.32;;;7.70;;
33491;SDS011;20010;51.488;7.232;2023-05-18T12:59:46;9.70;;;7.57;;
33491;SDS011;20010;51.488;7.232;2023-05-18T13:02:36;8.63;;;7.85;;
33491;SDS011;20010;51.488;7.232;2023-05-18T13:05:05;8.15;;;7.35;;
33491;SDS011;20010;51.488;7.232;2023-05-18T13:07:41;10.77;;;7.50;;
33491;SDS011;20010;51.488;7.232;2023-05-18T13:10:09;9.18;;;6.90;;
33491;SDS011;20010;51.488;7.232;2023-05-18T13:15:09;8.60;;;7.72;;
33491;SDS011;20010;51.488;7.232;2023-05-18T13:17:37;9.07;;;7.45;;
33491;SDS011;20010;51.488;7.232;2023-05-18T13:20:11;7.80;;;7.10;;
33491;SDS011;20010;51.488;7.232;2023-05-18T13:22:38;8.18;;;7.47;;
33491;SDS011;20010;51.488;7.232;2023-05-18T13:25:05;8.63;;;7.90;;
33491;SDS011;20010;51.488;7.232;2023-05-18T13:27:32;8.57;;;7.07;;
33491;SDS011;20010;51.488;7.232;2023-05-18T13:29:59;10.50;;;7.53;;
33491;SDS011;20010;51.488;7.232;2023-05-18T13:32:25;8.23;;;7.43;;
33491;SDS011;20010;51.488;7.232;2023-05-18T13:34:52;8.98;;;8.27;;
33491;SDS011;20010;51.488;7.232;2023-05-18T13:37:19;7.70;;;7.15;;
33491;SDS011;20010;51.488;7.232;2023-05-18T13:39:45;8.50;;;7.38;;
33491;SDS011;20010;51.488;7.232;2023-05-18T13:42:12;7.90;;;7.20;;
33491;SDS011;20010;51.488;7.232;2023-05-18T13:44:39;8.50;;;7.22;;
33491;SDS011;20010;51.488;7.232;2023-05-18T13:47:06;8.43;;;7.20;;
33491;SDS011;20010;51.488;7.232;2023-05-18T13:49:32;9.05;;;8.13;;
33491;SDS011;20010;51.488;7.232;2023-05-18T13:51:59;8.07;;;7.47;;
33491;SDS011;20010;51.488;7.232;2023-05-18T13:54:25;7.78;;;6.93;;
33491;SDS011;20010;51.488;7.232;2023-05-18T13:56:52;10.35;;;8.10;;
33491;SDS011;20010;51.488;7.232;2023-05-18T13:59:19;8.80;;;7.88;;
33491;SDS011;20010;51.488;7.232;2023-05-18T14:01:47;8.05;;;7.20;;
33491;SDS011;20010;51.488;7.232;2023-05-18T14:04:14;7.40;;;6.90;;
33491;SDS011;20010;51.488;7.232;2023-05-18T14:06:41;7.30;;;6.60;;
33491;SDS011;20010;51.488;7.232;2023-05-18T14:09:07;8.25;;;7.43;;
33491;SDS011;20010;51.488;7.232;2023-05-18T14:11:34;8.27;;;7.47;;
33491;SDS011;20010;51.488;7.232;2023-05-18T14:14:03;9.30;;;7.47;;
33491;SDS011;20010;51.488;7.232;2023-05-18T14:16:30;9.25;;;8.25;;
33491;SDS011;20010;51.488;7.232;2023-05-18T14:18:56;11.77;;;7.75;;
33491;SDS011;20010;51.488;7.232;2023-05-18T14:21:23;7.95;;;7.30;;
33491;SDS011;20010;51.488;7.232;2023-05-18T14:23:49;9.25;;;8.30;;
33491;SDS011;20010;51.488;7.232;2023-05-18T14:26:16;7.75;;;7.00;;
33491;SDS011;20010;51.488;7.232;2023-05-18T14:28:43;7.90;;;6.97;;
33491;SDS011;20010;51.488;7.232;2023-05-18T14:31:10;7.70;;;7.10;;
33491;SDS011;20010;51.488;7.232;2023-05-18T14:33:36;8.48;;;7.03;;
33491;SDS011;20010;51.488;7.232;2023-05-18T14:36:03;7.75;;;7.05;;
33491;SDS011;20010;51.488;7.232;2023-05-18T14:38:30;7.82;;;7.13;;
33491;SDS011;20010;51.488;7.232;2023-05-18T14:40:56;7.78;;;7.07;;
33491;SDS011;20010;51.488;7.232;2023-05-18T14:43:23;7.63;;;6.93;;
33491;SDS011;20010;51.488;7.232;2023-05-18T14:45:49;7.93;;;6.90;;
33491;SDS011;20010;51.488;7.232;2023-05-18T14:48:33;8.73;;;7.82;;
33491;SDS011;20010;51.488;7.232;2023-05-18T14:51:00;13.30;;;7.70;;
33491;SDS011;20010;51.488;7.232;2023-05-18T14:53:26;8.55;;;7.30;;
33491;SDS011;20010;51.488;7.232;2023-05-18T14:55:53;9.85;;;7.22;;
33491;SDS011;20010;51.488;7.232;2023-05-18T14:58:19;8.25;;;7.63;;
33491;SDS011;20010;51.488;7.232;2023-05-18T15:00:46;9.05;;;7.47;;
33491;SDS011;20010;51.488;7.232;2023-05-18T15:03:13;8.55;;;7.00;;
33491;SDS011;20010;51.488;7.232;2023-05-18T15:05:39;8.85;;;7.22;;
33491;SDS011;20010;51.488;7.232;2023-05-18T15:08:06;7.65;;;6.68;;
33491;SDS011;20010;51.488;7.232;2023-05-18T15:10:33;8.20;;;7.35;;
33491;SDS011;20010;51.488;7.232;2023-05-18T15:12:59;13.50;;;8.07;;
33491;SDS011;20010;51.488;7.232;2023-05-18T15:15:26;8.77;;;7.88;;
33491;SDS011;20010;51.488;7.232;2023-05-18T15:17:53;8.18;;;6.78;;
33491;SDS011;20010;51.488;7.232;2023-05-18T15:20:19;8.77;;;6.93;;
33491;SDS011;20010;51.488;7.232;2023-05-18T15:22:46;7.05;;;6.35;;
33491;SDS011;20010;51.488;7.232;2023-05-18T15:25:12;12.43;;;7.40;;
33491;SDS011;20010;51.488;7.232;2023-05-18T15:27:39;7.70;;;6.95;;
33491;SDS011;20010;51.488;7.232;2023-05-18T15:30:06;9.07;;;7.40;;
33491;SDS011;20010;51.488;7.232;2023-05-18T15:32:37;11.88;;;8.82;;